createdAt,value
2023-02-22T00:00:41.139Z,3.28
2023-02-22T00:03:09.287Z,2.72
2023-02-22T00:05:36.443Z,3.13
2023-02-22T00:08:03.209Z,3.72
2023-02-22T00:10:29.915Z,4.00
2023-02-22T00:12:57.988Z,3.90
2023-02-22T00:15:24.889Z,4.05
2023-02-22T00:17:51.668Z,3.97
2023-02-22T00:20:18.846Z,4.25
2023-02-22T00:22:47.459Z,4.32
2023-02-22T00:25:15.746Z,3.85
2023-02-22T00:27:42.540Z,4.60
2023-02-22T00:30:14.787Z,4.28
2023-02-22T00:32:43.216Z,4.65
2023-02-22T00:35:09.972Z,4.38
2023-02-22T00:37:36.756Z,5.63
2023-02-22T00:40:03.795Z,5.05
2023-02-22T00:42:30.525Z,5.00
2023-02-22T00:44:57.235Z,4.30
2023-02-22T00:47:25.327Z,5.03
2023-02-22T00:49:52.068Z,4.93
2023-02-22T00:52:18.832Z,4.53
2023-02-22T00:54:45.589Z,4.82
2023-02-22T00:57:12.647Z,4.30
2023-02-22T00:59:39.394Z,4.32
2023-02-22T01:02:06.296Z,3.40
2023-02-22T01:04:34.596Z,3.38
2023-02-22T01:07:01.546Z,3.33
2023-02-22T01:09:28.300Z,3.47
2023-02-22T01:11:55.820Z,4.00
2023-02-22T01:14:23.093Z,3.50
2023-02-22T01:16:50.203Z,3.55
2023-02-22T01:19:17.055Z,3.35
2023-02-22T01:21:45.167Z,3.88
2023-02-22T01:24:11.938Z,3.08
2023-02-22T01:26:38.673Z,3.38
2023-02-22T01:29:05.520Z,3.65
2023-02-22T01:31:32.261Z,4.00
2023-02-22T01:33:59.076Z,3.58
2023-02-22T01:36:25.817Z,4.38
2023-02-22T01:38:53.901Z,4.03
2023-02-22T01:41:20.790Z,4.03
2023-02-22T01:43:47.493Z,3.97
2023-02-22T01:46:22.440Z,3.50
2023-02-22T01:48:53.989Z,3.67
2023-02-22T01:51:23.374Z,3.90
2023-02-22T01:53:55.570Z,3.67
2023-02-22T01:56:25.153Z,3.92
2023-02-22T01:58:57.116Z,4.20
2023-02-22T02:01:25.800Z,3.47
2023-02-22T02:03:56.198Z,3.50
2023-02-22T02:06:22.965Z,3.63
2023-02-22T02:08:57.924Z,3.88
2023-02-22T02:11:25.955Z,3.28
2023-02-22T02:13:54.006Z,3.92
2023-02-22T02:16:21.223Z,3.50
2023-02-22T02:18:48.136Z,4.03
2023-02-22T02:21:41.750Z,3.33
2023-02-22T02:24:53.981Z,4.28
2023-02-22T02:27:22.742Z,4.38
2023-02-22T02:30:33.484Z,4.32
2023-02-22T02:33:08.246Z,4.28
2023-02-22T02:35:47.929Z,4.70
2023-02-22T02:38:26.718Z,4.40
2023-02-22T02:41:03.778Z,3.95
2023-02-22T02:43:36.937Z,4.05
2023-02-22T02:46:07.946Z,3.45
2023-02-22T02:48:39.658Z,3.75
2023-02-22T02:51:09.128Z,3.15
2023-02-22T02:53:39.512Z,3.20
2023-02-22T02:56:06.790Z,3.65
2023-02-22T02:58:33.714Z,3.55
2023-02-22T03:01:03.328Z,3.47
2023-02-22T03:04:00.043Z,3.80
2023-02-22T03:06:44.565Z,3.55
2023-02-22T03:09:18.705Z,3.40
2023-02-22T03:14:26.523Z,3.50
2023-02-22T03:16:59.681Z,3.47
2023-02-22T03:19:36.322Z,3.53
2023-02-22T03:22:10.167Z,4.10
2023-02-22T03:24:44.513Z,3.72
2023-02-22T03:27:16.776Z,4.25
2023-02-22T03:29:45.346Z,3.95
2023-02-22T03:32:16.569Z,3.58
2023-02-22T03:34:51.108Z,3.88
2023-02-22T03:37:21.192Z,3.42
2023-02-22T03:39:51.346Z,3.38
2023-02-22T03:42:22.234Z,3.35
2023-02-22T03:44:51.435Z,3.50
2023-02-22T03:47:22.873Z,3.40
2023-02-22T03:49:56.271Z,3.42
2023-02-22T03:52:23.291Z,3.47
2023-02-22T03:54:50.396Z,3.22
2023-02-22T03:57:23.575Z,4.10
2023-02-22T03:59:50.570Z,3.77
2023-02-22T04:02:17.312Z,4.03
2023-02-22T04:04:44.169Z,4.10
2023-02-22T04:07:12.265Z,4.05
2023-02-22T04:09:39.171Z,4.60
2023-02-22T04:12:06.293Z,3.38
2023-02-22T04:14:33.038Z,4.30
2023-02-22T04:17:00.196Z,3.40
2023-02-22T04:19:26.981Z,3.60
2023-02-22T04:21:53.728Z,4.35
2023-02-22T04:24:21.786Z,3.90
2023-02-22T04:26:48.506Z,4.18
2023-02-22T04:29:15.225Z,3.97
2023-02-22T04:31:41.936Z,3.55
2023-02-22T04:34:08.832Z,3.63
2023-02-22T04:36:35.531Z,3.67
2023-02-22T04:39:02.322Z,3.80
2023-02-22T04:41:30.462Z,4.07
2023-02-22T04:43:57.253Z,3.88
2023-02-22T04:46:24.101Z,3.75
2023-02-22T04:48:50.856Z,3.38
2023-02-22T04:51:18.135Z,3.92
2023-02-22T04:53:45.016Z,3.90
2023-02-22T04:56:12.200Z,3.90
2023-02-22T04:58:40.266Z,3.97
2023-02-22T05:01:07.001Z,4.03
2023-02-22T05:03:33.744Z,4.13
2023-02-22T05:06:00.482Z,3.97
2023-02-22T05:08:27.190Z,4.28
2023-02-22T05:10:53.914Z,9.55
2023-02-22T05:13:20.888Z,15.68
2023-02-22T05:15:49.047Z,8.25
2023-02-22T05:18:16.125Z,4.80
2023-02-22T05:20:42.865Z,6.20
2023-02-22T05:23:09.705Z,6.72
2023-02-22T05:25:36.414Z,7.25
2023-02-22T05:28:05.060Z,6.07
2023-02-22T05:30:33.342Z,6.22
2023-02-22T05:33:02.080Z,6.32
2023-02-22T05:35:29.332Z,5.45
2023-02-22T05:37:56.423Z,5.05
2023-02-22T05:40:25.685Z,4.63
2023-02-22T05:42:53.228Z,5.22
2023-02-22T05:45:22.111Z,5.78
2023-02-22T05:47:49.079Z,5.93
2023-02-22T05:50:18.894Z,4.53
2023-02-22T05:52:45.699Z,5.97
2023-02-22T05:55:14.479Z,5.93
2023-02-22T05:57:41.305Z,5.68
2023-02-22T06:00:09.870Z,4.53
2023-02-22T06:02:36.804Z,4.53
2023-02-22T06:05:03.852Z,4.32
2023-02-22T06:07:31.904Z,4.53
2023-02-22T06:09:58.630Z,4.60
2023-02-22T06:12:25.425Z,4.53
2023-02-22T06:14:52.159Z,5.15
2023-02-22T06:17:20.587Z,5.18
2023-02-22T06:19:47.441Z,5.65
2023-02-22T06:22:17.734Z,4.90
2023-02-22T06:24:45.939Z,5.32
2023-02-22T06:27:12.732Z,5.63
2023-02-22T06:29:39.461Z,4.97
2023-02-22T06:32:06.249Z,4.97
2023-02-22T06:34:32.969Z,4.72
2023-02-22T06:37:00.110Z,4.78
2023-02-22T06:39:26.947Z,4.82
2023-02-22T06:41:55.081Z,4.53
2023-02-22T06:44:21.997Z,4.65
2023-02-22T06:46:49.856Z,4.93
2023-02-22T06:49:16.876Z,4.93
2023-02-22T06:51:43.994Z,4.43
2023-02-22T06:54:10.758Z,4.57
2023-02-22T06:56:37.496Z,4.78
2023-02-22T06:59:05.591Z,4.82
2023-02-22T07:01:32.364Z,3.95
2023-02-22T07:03:59.069Z,3.97
2023-02-22T07:06:25.809Z,4.45
2023-02-22T07:08:52.532Z,4.32
2023-02-22T07:11:19.473Z,4.55
2023-02-22T07:13:46.392Z,5.25
2023-02-22T07:16:14.522Z,4.90
2023-02-22T07:18:41.286Z,5.03
2023-02-22T07:21:08.151Z,4.78
2023-02-22T07:23:35.085Z,4.50
2023-02-22T07:26:02.628Z,4.95
2023-02-22T07:28:29.427Z,5.55
2023-02-22T07:30:56.237Z,6.00
2023-02-22T07:33:24.362Z,5.32
2023-02-22T07:35:51.578Z,5.43
2023-02-22T07:38:20.083Z,5.68
2023-02-22T07:40:46.867Z,6.65
2023-02-22T07:43:17.217Z,6.35
2023-02-22T07:45:45.308Z,6.32
2023-02-22T07:48:13.476Z,7.22
2023-02-22T07:50:42.264Z,8.27
2023-02-22T07:53:13.431Z,5.05
2023-02-22T07:55:40.245Z,6.03
2023-02-22T07:58:08.766Z,8.10
2023-02-22T08:00:36.967Z,7.75
2023-02-22T08:03:06.199Z,8.73
2023-02-22T08:05:34.874Z,7.88
2023-02-22T08:08:03.031Z,8.07
2023-02-22T08:10:30.066Z,8.32
2023-02-22T08:12:57.534Z,6.45
2023-02-22T08:15:26.508Z,6.45
2023-02-22T08:17:53.237Z,6.10
2023-02-22T08:20:20.038Z,6.25
2023-02-22T08:22:47.438Z,6.50
2023-02-22T08:25:18.346Z,6.30
2023-02-22T08:27:45.314Z,7.22
2023-02-22T08:30:15.144Z,6.85
2023-02-22T08:32:41.999Z,6.07
2023-02-22T08:35:09.367Z,5.78
2023-02-22T08:37:36.091Z,5.47
2023-02-22T08:40:02.876Z,5.00
2023-02-22T08:42:30.949Z,3.75
2023-02-22T08:44:57.760Z,3.80
2023-02-22T08:47:25.324Z,3.50
2023-02-22T08:49:52.070Z,3.75
2023-02-22T08:52:19.879Z,3.17
2023-02-22T08:54:46.608Z,3.58
2023-02-22T08:57:13.367Z,3.53
2023-02-22T08:59:41.637Z,3.30
2023-02-22T09:02:14.818Z,3.45
2023-02-22T09:04:41.659Z,3.30
2023-02-22T09:07:08.440Z,3.13
2023-02-22T09:09:35.166Z,3.10
2023-02-22T09:12:02.071Z,2.90
2023-02-22T09:14:28.834Z,2.60
2023-02-22T09:16:57.197Z,3.38
2023-02-22T09:19:24.023Z,2.70
2023-02-22T09:21:53.334Z,2.28
2023-02-22T09:24:20.088Z,3.20
2023-02-22T09:26:48.220Z,2.60
2023-02-22T09:29:14.949Z,2.83
2023-02-22T09:31:42.179Z,2.95
2023-02-22T09:34:10.308Z,2.95
2023-02-22T09:36:37.021Z,2.45
2023-02-22T09:39:03.854Z,2.80
2023-02-22T09:41:36.536Z,2.70
2023-02-22T09:44:15.048Z,2.38
2023-02-22T09:46:44.997Z,2.30
2023-02-22T09:49:20.128Z,2.90
2023-02-22T09:51:52.199Z,2.70
2023-02-22T09:54:24.946Z,2.63
2023-02-22T09:56:56.072Z,2.08
2023-02-22T09:59:27.105Z,2.60
2023-02-22T10:02:02.439Z,1.95
2023-02-22T10:04:38.973Z,2.05
2023-02-22T10:07:15.562Z,2.83
2023-02-22T10:09:45.195Z,2.22
2023-02-22T10:12:18.901Z,2.10
2023-02-22T10:14:57.243Z,2.20
2023-02-22T10:17:32.688Z,2.55
2023-02-22T10:20:14.945Z,2.30
2023-02-22T10:22:56.285Z,2.00
2023-02-22T10:25:25.680Z,2.30
2023-02-22T10:27:57.575Z,2.35
2023-02-22T10:30:29.061Z,2.28
2023-02-22T10:33:04.560Z,2.70
2023-02-22T10:35:37.365Z,2.60
2023-02-22T10:38:14.212Z,2.63
2023-02-22T10:40:46.069Z,2.42
2023-02-22T10:43:12.910Z,2.78
2023-02-22T10:45:39.885Z,3.40
2023-02-22T10:48:09.202Z,2.90
2023-02-22T10:50:39.744Z,2.95
2023-02-22T10:53:06.700Z,3.30
2023-02-22T10:55:33.778Z,2.97
2023-02-22T10:58:03.183Z,3.10
2023-02-22T11:00:31.844Z,2.60
2023-02-22T11:03:00.232Z,2.55
2023-02-22T11:05:29.973Z,2.90
2023-02-22T11:08:22.565Z,2.53
2023-02-22T11:10:51.381Z,2.72
2023-02-22T11:13:19.266Z,3.00
2023-02-22T11:15:46.036Z,3.20
2023-02-22T11:18:25.114Z,3.08
2023-02-22T11:21:09.406Z,2.97
2023-02-22T11:23:39.749Z,2.75
2023-02-22T11:26:09.538Z,2.80
2023-02-22T11:28:37.411Z,2.95
2023-02-22T11:31:16.612Z,2.65
2023-02-22T11:33:51.297Z,2.72
2023-02-22T11:36:32.211Z,2.70
2023-02-22T11:39:00.360Z,2.67
2023-02-22T11:41:29.201Z,2.53
2023-02-22T11:44:13.520Z,2.60
2023-02-22T11:46:42.428Z,2.38
2023-02-22T11:49:11.924Z,3.00
2023-02-22T11:51:59.777Z,3.10
2023-02-22T11:55:00.914Z,2.72
2023-02-22T11:57:45.974Z,2.78
2023-02-22T12:00:19.090Z,2.30
2023-02-22T12:03:01.706Z,2.15
2023-02-22T12:05:44.484Z,2.90
2023-02-22T12:08:20.638Z,2.33
2023-02-22T12:11:05.416Z,2.47
2023-02-22T12:13:44.940Z,1.88
2023-02-22T12:16:24.074Z,1.92
2023-02-22T12:19:06.543Z,1.80
2023-02-22T12:21:38.569Z,1.65
2023-02-22T12:24:09.375Z,2.35
2023-02-22T12:26:41.113Z,1.88
2023-02-22T12:29:14.188Z,1.70
2023-02-22T12:31:44.935Z,1.90
2023-02-22T12:34:25.906Z,1.73
2023-02-22T12:36:55.979Z,1.27
2023-02-22T12:39:51.765Z,1.77
2023-02-22T12:42:29.844Z,1.42
2023-02-22T12:45:05.081Z,1.33
2023-02-22T12:47:40.441Z,1.58
2023-02-22T12:50:17.104Z,1.50
2023-02-22T12:52:47.647Z,1.70
2023-02-22T12:55:19.918Z,1.30
2023-02-22T12:57:53.883Z,1.80
2023-02-22T13:00:24.601Z,1.30
2023-02-22T13:02:58.293Z,1.60
2023-02-22T13:05:25.311Z,1.15
2023-02-22T13:08:07.933Z,1.23
2023-02-22T13:10:58.880Z,1.77
2023-02-22T13:13:35.214Z,1.52
2023-02-22T13:16:09.334Z,1.20
2023-02-22T13:21:15.516Z,1.30
2023-02-22T13:23:53.264Z,1.30
2023-02-22T13:26:27.361Z,1.30
2023-02-22T13:31:46.857Z,1.38
2023-02-22T13:34:30.954Z,1.50
2023-02-22T13:37:10.153Z,1.25
2023-02-22T13:40:05.536Z,1.40
2023-02-22T13:43:02.948Z,1.20
2023-02-22T13:45:57.982Z,1.80
2023-02-22T13:49:06.494Z,1.35
2023-02-22T13:51:45.868Z,1.30
2023-02-22T13:54:19.517Z,1.60
2023-02-22T13:56:48.731Z,1.60
2023-02-22T13:59:30.681Z,1.30
2023-02-22T14:02:00.375Z,1.70
2023-02-22T14:04:41.630Z,1.20
2023-02-22T14:07:56.305Z,1.60
2023-02-22T14:10:45.834Z,1.38
2023-02-22T14:13:13.672Z,1.45
2023-02-22T14:16:14.226Z,1.60
2023-02-22T14:18:44.369Z,1.50
2023-02-22T14:21:12.760Z,1.38
2023-02-22T14:23:40.864Z,1.40
2023-02-22T14:26:13.769Z,1.70
2023-02-22T14:28:46.590Z,1.60
2023-02-22T14:31:33.231Z,1.83
2023-02-22T14:34:07.086Z,1.98
2023-02-22T14:36:39.472Z,1.60
2023-02-22T14:39:13.762Z,1.60
2023-02-22T14:41:46.726Z,1.90
2023-02-22T14:44:15.586Z,1.50
2023-02-22T14:46:46.175Z,1.85
2023-02-22T14:49:19.803Z,1.50
2023-02-22T14:51:53.873Z,1.55
2023-02-22T14:56:58.233Z,1.73
2023-02-22T14:59:27.038Z,2.00
2023-02-22T15:02:11.505Z,1.92
2023-02-22T15:04:40.225Z,1.58
2023-02-22T15:07:20.929Z,1.58
2023-02-22T15:09:47.954Z,2.00
2023-02-22T15:12:24.298Z,1.83
2023-02-22T15:15:09.416Z,1.67
2023-02-22T15:17:36.172Z,1.60
2023-02-22T15:20:08.137Z,1.83
2023-02-22T15:22:36.530Z,1.90
2023-02-22T15:25:06.807Z,1.83
2023-02-22T15:27:34.261Z,2.13
2023-02-22T15:30:03.063Z,2.03
2023-02-22T15:32:31.968Z,1.95
2023-02-22T15:35:13.160Z,1.52
2023-02-22T15:37:40.241Z,1.60
2023-02-22T15:40:08.386Z,1.90
2023-02-22T15:42:43.758Z,1.95
2023-02-22T15:45:15.825Z,1.77
2023-02-22T15:47:42.691Z,1.92
2023-02-22T15:50:21.139Z,1.80
2023-02-22T15:52:49.874Z,1.45
2023-02-22T15:55:17.541Z,1.30
2023-02-22T15:57:44.478Z,1.60
2023-02-22T16:00:21.253Z,1.98
2023-02-22T16:02:48.937Z,1.20
2023-02-22T16:05:17.966Z,1.48
2023-02-22T16:07:47.669Z,1.85
2023-02-22T16:10:21.164Z,1.85
2023-02-22T16:12:47.994Z,1.80
2023-02-22T16:15:16.520Z,1.70
2023-02-22T16:17:55.965Z,1.90
2023-02-22T16:20:34.391Z,1.90
2023-02-22T16:23:21.374Z,2.20
2023-02-22T16:26:02.069Z,1.70
2023-02-22T16:28:30.208Z,1.75
2023-02-22T16:30:58.045Z,1.70
2023-02-22T16:33:24.944Z,1.83
2023-02-22T16:35:53.158Z,2.30
2023-02-22T16:38:20.124Z,1.80
2023-02-22T16:40:49.915Z,1.45
2023-02-22T16:43:20.082Z,2.00
2023-02-22T16:45:46.944Z,1.55
2023-02-22T16:48:16.812Z,2.40
2023-02-22T16:50:43.582Z,2.13
2023-02-22T16:53:12.042Z,1.90
2023-02-22T16:55:41.614Z,1.75
2023-02-22T16:58:13.678Z,1.90
2023-02-22T17:00:40.679Z,1.80
2023-02-22T17:03:10.058Z,2.17
2023-02-22T17:05:37.005Z,2.10
2023-02-22T17:08:03.922Z,2.90
2023-02-22T17:10:32.129Z,2.30
2023-02-22T17:13:07.176Z,2.30
2023-02-22T17:15:39.648Z,2.03
2023-02-22T17:18:15.119Z,2.30
2023-02-22T17:20:42.137Z,2.78
2023-02-22T17:23:10.034Z,2.50
2023-02-22T17:25:40.789Z,2.40
2023-02-22T17:28:07.981Z,2.03
2023-02-22T17:30:35.539Z,1.83
2023-02-22T17:33:04.215Z,1.95
2023-02-22T17:35:35.603Z,2.00
2023-02-22T17:38:03.953Z,1.92
2023-02-22T17:40:30.733Z,2.08
2023-02-22T17:42:59.055Z,2.20
2023-02-22T17:45:25.962Z,2.65
2023-02-22T17:47:53.116Z,2.60
2023-02-22T17:50:21.792Z,2.47
2023-02-22T17:52:49.596Z,2.92
2023-02-22T17:55:16.448Z,3.60
2023-02-22T17:57:43.315Z,3.95
2023-02-22T18:00:15.778Z,3.17
2023-02-22T18:02:43.395Z,3.15
2023-02-22T18:05:12.042Z,4.10
2023-02-22T18:07:38.769Z,3.28
2023-02-22T18:10:06.882Z,3.92
2023-02-22T18:12:33.641Z,3.55
2023-02-22T18:15:00.369Z,3.28
2023-02-22T18:17:28.469Z,3.72
2023-02-22T18:19:55.196Z,3.72
2023-02-22T18:22:22.379Z,3.83
2023-02-22T18:24:49.228Z,3.05
2023-02-22T18:27:15.962Z,4.03
2023-02-22T18:29:42.844Z,3.53
2023-02-22T18:32:09.574Z,3.30
2023-02-22T18:34:37.737Z,3.20
2023-02-22T18:37:04.952Z,3.50
2023-02-22T18:39:32.677Z,3.85
2023-02-22T18:41:59.512Z,4.55
2023-02-22T18:44:26.315Z,4.68
2023-02-22T18:46:53.169Z,3.92
2023-02-22T18:49:20.094Z,4.38
2023-02-22T18:51:48.467Z,4.18
2023-02-22T18:54:15.190Z,4.20
2023-02-22T18:56:41.925Z,4.03
2023-02-22T18:59:10.405Z,5.40
2023-02-22T19:01:37.773Z,4.95
2023-02-22T19:04:04.774Z,4.18
2023-02-22T19:06:31.770Z,4.75
2023-02-22T19:09:01.097Z,3.88
2023-02-22T19:11:27.873Z,4.10
2023-02-22T19:13:57.626Z,4.55
2023-02-22T19:16:26.764Z,4.15
2023-02-22T19:18:54.145Z,4.13
2023-02-22T19:21:21.384Z,3.90
2023-02-22T19:23:48.994Z,4.25
2023-02-22T19:26:20.512Z,4.88
2023-02-22T19:28:48.384Z,4.63
2023-02-22T19:31:18.312Z,4.47
2023-02-22T19:33:46.645Z,5.82
2023-02-22T19:36:14.708Z,5.05
2023-02-22T19:38:42.864Z,5.18
2023-02-22T19:41:12.049Z,5.50
2023-02-22T19:43:40.197Z,6.20
2023-02-22T19:46:08.046Z,5.40
2023-02-22T19:48:36.080Z,6.63
2023-02-22T19:51:04.853Z,5.65
2023-02-22T19:53:31.764Z,5.85
2023-02-22T19:55:59.085Z,5.82
2023-02-22T19:58:26.038Z,3.80
2023-02-22T20:00:55.084Z,3.78
2023-02-22T20:03:21.940Z,4.30
2023-02-22T20:05:48.978Z,4.00
2023-02-22T20:08:15.948Z,3.83
2023-02-22T20:10:42.698Z,4.18
2023-02-22T20:13:10.104Z,3.88
2023-02-22T20:15:36.933Z,4.63
2023-02-22T20:18:05.309Z,4.38
2023-02-22T20:20:32.101Z,4.88
2023-02-22T20:22:58.836Z,4.72
2023-02-22T20:25:25.596Z,4.78
2023-02-22T20:27:52.322Z,4.82
2023-02-22T20:30:19.071Z,5.47
2023-02-22T20:32:45.953Z,5.30
2023-02-22T20:35:14.138Z,5.93
2023-02-22T20:37:40.874Z,5.95
2023-02-22T20:40:08.383Z,5.78
2023-02-22T20:42:35.115Z,6.72
2023-02-22T20:45:02.024Z,6.55
2023-02-22T20:47:28.990Z,5.63
2023-02-22T20:49:55.740Z,6.55
2023-02-22T20:52:23.830Z,5.70
2023-02-22T20:54:50.571Z,5.75
2023-02-22T20:57:17.319Z,5.93
2023-02-22T20:59:44.180Z,7.03
2023-02-22T21:02:11.100Z,7.22
2023-02-22T21:04:37.863Z,6.28
2023-02-22T21:07:04.646Z,5.72
2023-02-22T21:09:32.717Z,5.88
2023-02-22T21:11:59.437Z,6.07
2023-02-22T21:14:26.215Z,4.82
2023-02-22T21:16:53.289Z,6.78
2023-02-22T21:19:20.526Z,5.30
2023-02-22T21:21:47.292Z,5.80
2023-02-22T21:24:14.009Z,6.05
2023-02-22T21:26:42.084Z,6.38
2023-02-22T21:29:09.471Z,6.47
2023-02-22T21:31:36.999Z,6.45
2023-02-22T21:34:03.966Z,6.50
2023-02-22T21:36:30.881Z,7.15
2023-02-22T21:38:59.090Z,7.10
2023-02-22T21:41:28.043Z,5.55
2023-02-22T21:43:57.925Z,6.72
2023-02-22T21:46:25.509Z,5.82
2023-02-22T21:48:52.305Z,5.75
2023-02-22T21:51:21.264Z,6.10
2023-02-22T21:53:50.351Z,6.03
2023-02-22T21:56:22.833Z,6.53
2023-02-22T21:58:54.845Z,6.53
2023-02-22T22:01:22.952Z,6.80
2023-02-22T22:03:49.718Z,6.28
2023-02-22T22:06:16.437Z,6.38
2023-02-22T22:08:43.406Z,6.10
2023-02-22T22:11:12.267Z,6.05
2023-02-22T22:13:40.866Z,6.78
2023-02-22T22:16:09.739Z,7.00
2023-02-22T22:18:39.380Z,6.82
2023-02-22T22:21:10.029Z,7.88
2023-02-22T22:23:38.133Z,8.88
2023-02-22T22:26:05.782Z,8.43
2023-02-22T22:28:32.493Z,9.07
2023-02-22T22:30:59.245Z,9.15
2023-02-22T22:33:25.974Z,10.18
2023-02-22T22:35:56.860Z,10.77
2023-02-22T22:38:23.625Z,10.40
2023-02-22T22:40:50.346Z,6.90
2023-02-22T22:43:17.140Z,8.30
2023-02-22T22:45:43.889Z,8.00
2023-02-22T22:48:10.612Z,9.73
2023-02-22T22:50:37.367Z,9.02
2023-02-22T22:53:05.525Z,9.05
2023-02-22T22:55:32.255Z,9.15
2023-02-22T22:57:59.026Z,10.18
2023-02-22T23:00:27.580Z,9.07
2023-02-22T23:02:54.376Z,9.80
2023-02-22T23:05:21.138Z,9.80
2023-02-22T23:07:47.954Z,9.00
2023-02-22T23:10:16.289Z,10.35
2023-02-22T23:12:43.046Z,9.93
2023-02-22T23:15:10.645Z,10.10
2023-02-22T23:17:37.378Z,10.35
2023-02-22T23:20:04.647Z,9.95
2023-02-22T23:22:31.375Z,11.00
2023-02-22T23:24:58.274Z,11.43
2023-02-22T23:27:26.395Z,9.75
2023-02-22T23:29:53.219Z,10.75
2023-02-22T23:32:20.072Z,10.82
2023-02-22T23:34:47.123Z,10.07
2023-02-22T23:37:13.836Z,10.35
2023-02-22T23:39:40.573Z,11.60
2023-02-22T23:42:07.371Z,11.10
2023-02-22T23:44:35.452Z,9.88
2023-02-22T23:47:02.343Z,10.73
2023-02-22T23:49:29.697Z,10.40
2023-02-22T23:51:56.466Z,10.98
2023-02-22T23:54:23.197Z,10.23
2023-02-22T23:56:49.940Z,10.55
2023-02-22T23:59:16.709Z,10.93
